createdAt,value
2018-07-28T00:00:11.168Z,23.12
2018-07-28T00:02:40.362Z,23.09
2018-07-28T00:05:10.718Z,23.05
2018-07-28T00:07:39.872Z,23.01
2018-07-28T00:10:12.145Z,22.97
2018-07-28T00:12:41.729Z,22.97
2018-07-28T00:15:12.444Z,22.94
2018-07-28T00:17:42.841Z,22.88
2018-07-28T00:20:13.165Z,22.88
2018-07-28T00:22:42.318Z,22.89
2018-07-28T00:25:12.589Z,22.89
2018-07-28T00:27:42.196Z,22.82
2018-07-28T00:30:13.057Z,22.80
2018-07-28T00:32:42.381Z,22.71
2018-07-28T00:35:11.500Z,22.64
2018-07-28T00:37:40.669Z,22.62
2018-07-28T00:40:09.781Z,22.57
2018-07-28T00:42:39.048Z,22.62
2018-07-28T00:45:08.639Z,22.65
2018-07-28T00:47:37.818Z,22.61
2018-07-28T00:50:08.532Z,22.61
2018-07-28T00:52:37.869Z,22.63
2018-07-28T00:55:07.956Z,22.62
2018-07-28T00:57:37.087Z,22.53
2018-07-28T01:00:08.261Z,22.44
2018-07-28T01:02:37.616Z,22.38
2018-07-28T01:05:07.370Z,22.33
2018-07-28T01:07:36.509Z,22.36
2018-07-28T01:10:06.548Z,22.31
2018-07-28T01:12:35.696Z,22.29
2018-07-28T01:15:07.703Z,22.32
2018-07-28T01:17:37.006Z,22.24
2018-07-28T01:20:07.849Z,22.23
2018-07-28T01:22:37.149Z,22.24
2018-07-28T01:25:08.069Z,22.21
2018-07-28T01:27:37.231Z,22.18
2018-07-28T01:30:11.854Z,22.18
2018-07-28T01:32:41.000Z,22.11
2018-07-28T01:35:10.328Z,22.01
2018-07-28T01:37:39.452Z,21.97
2018-07-28T01:40:08.593Z,21.90
2018-07-28T01:42:37.716Z,21.85
2018-07-28T01:45:08.733Z,21.79
2018-07-28T01:47:37.909Z,21.84
2018-07-28T01:50:09.303Z,21.83
2018-07-28T01:52:38.453Z,21.80
2018-07-28T01:55:07.629Z,21.73
2018-07-28T01:57:36.782Z,21.72
2018-07-28T02:00:07.183Z,21.72
2018-07-28T02:02:36.409Z,21.80
2018-07-28T02:05:07.804Z,21.79
2018-07-28T02:07:36.968Z,21.78
2018-07-28T02:10:06.645Z,21.77
2018-07-28T02:12:35.828Z,21.70
2018-07-28T02:15:06.377Z,21.60
2018-07-28T02:17:35.544Z,21.69
2018-07-28T02:20:05.939Z,21.64
2018-07-28T02:22:35.076Z,21.73
2018-07-28T02:25:05.436Z,21.68
2018-07-28T02:27:34.596Z,21.60
2018-07-28T02:30:03.801Z,21.60
2018-07-28T02:32:33.201Z,21.60
2018-07-28T02:35:02.341Z,21.54
2018-07-28T02:37:31.492Z,21.55
2018-07-28T02:40:00.628Z,21.55
2018-07-28T02:42:29.753Z,21.49
2018-07-28T02:44:58.868Z,21.35
2018-07-28T02:47:28.002Z,21.29
2018-07-28T02:49:57.149Z,21.22
2018-07-28T02:52:26.282Z,21.30
2018-07-28T02:54:55.421Z,21.31
2018-07-28T02:57:24.561Z,21.27
2018-07-28T02:59:53.692Z,21.46
2018-07-28T03:02:22.819Z,21.48
2018-07-28T03:04:51.929Z,21.46
2018-07-28T03:07:21.064Z,21.46
2018-07-28T03:09:50.188Z,21.44
2018-07-28T03:12:20.522Z,21.39
2018-07-28T03:14:49.680Z,21.33
2018-07-28T03:17:18.821Z,21.33
2018-07-28T03:19:47.977Z,21.30
2018-07-28T03:22:17.137Z,21.33
2018-07-28T03:24:46.312Z,21.25
2018-07-28T03:27:15.424Z,21.30
2018-07-28T03:29:44.561Z,21.23
2018-07-28T03:32:13.717Z,21.20
2018-07-28T03:34:42.868Z,21.18
2018-07-28T03:37:12.067Z,21.22
2018-07-28T03:39:41.204Z,21.20
2018-07-28T03:42:10.560Z,21.10
2018-07-28T03:44:39.701Z,21.00
2018-07-28T03:47:08.837Z,21.06
2018-07-28T03:49:37.784Z,21.05
2018-07-28T03:52:06.929Z,21.05
2018-07-28T03:54:36.123Z,21.07
2018-07-28T03:57:05.305Z,20.97
2018-07-28T03:59:34.471Z,20.85
2018-07-28T04:02:03.662Z,20.95
2018-07-28T04:04:32.805Z,20.88
2018-07-28T04:07:01.991Z,20.93
2018-07-28T04:09:31.137Z,20.89
2018-07-28T04:12:00.348Z,20.86
2018-07-28T04:14:29.505Z,20.76
2018-07-28T04:16:58.748Z,20.75
2018-07-28T04:19:27.964Z,20.74
2018-07-28T04:21:57.176Z,20.76
2018-07-28T04:24:26.328Z,20.67
2018-07-28T04:26:55.479Z,20.72
2018-07-28T04:29:24.725Z,20.68
2018-07-28T04:31:53.869Z,20.73
2018-07-28T04:34:23.008Z,20.77
2018-07-28T04:36:52.173Z,20.75
2018-07-28T04:39:21.355Z,20.73
2018-07-28T04:41:50.488Z,20.67
2018-07-28T04:44:19.894Z,20.65
2018-07-28T04:46:49.087Z,20.70
2018-07-28T04:49:18.254Z,20.75
2018-07-28T04:51:47.463Z,20.68
2018-07-28T04:54:16.661Z,20.75
2018-07-28T04:56:45.793Z,20.80
2018-07-28T04:59:15.007Z,20.73
2018-07-28T05:01:44.150Z,20.85
2018-07-28T05:04:13.294Z,20.95
2018-07-28T05:06:42.480Z,20.93
2018-07-28T05:09:11.857Z,20.95
2018-07-28T05:11:41.025Z,20.86
2018-07-28T05:14:10.148Z,20.94
2018-07-28T05:16:39.296Z,20.98
2018-07-28T05:19:08.667Z,21.07
2018-07-28T05:21:37.797Z,21.07
2018-07-28T05:24:07.339Z,21.11
2018-07-28T05:26:36.516Z,21.05
2018-07-28T05:29:06.050Z,21.08
2018-07-28T05:31:35.472Z,21.14
2018-07-28T05:34:04.593Z,21.20
2018-07-28T05:36:33.725Z,21.20
2018-07-28T05:39:03.227Z,21.23
2018-07-28T05:41:32.385Z,21.29
2018-07-28T05:44:01.579Z,21.36
2018-07-28T05:46:30.868Z,21.49
2018-07-28T05:49:00.070Z,21.51
2018-07-28T05:51:29.371Z,21.51
2018-07-28T05:53:58.574Z,21.57
2018-07-28T05:56:27.768Z,21.71
2018-07-28T05:58:56.925Z,21.78
2018-07-28T06:01:26.076Z,21.86
2018-07-28T06:03:55.275Z,21.90
2018-07-28T06:06:24.479Z,21.91
2018-07-28T06:08:53.626Z,21.97
2018-07-28T06:13:51.004Z,22.15
2018-07-28T06:16:20.161Z,22.24
2018-07-28T06:18:49.312Z,22.29
2018-07-28T06:21:18.524Z,22.32
2018-07-28T06:23:47.717Z,22.40
2018-07-28T06:26:16.883Z,22.44
2018-07-28T06:28:46.025Z,22.46
2018-07-28T06:31:15.193Z,22.51
2018-07-28T06:33:44.373Z,22.56
2018-07-28T06:36:13.520Z,22.63
2018-07-28T06:38:42.756Z,22.67
2018-07-28T06:41:11.929Z,22.69
2018-07-28T06:43:41.205Z,22.75
2018-07-28T06:46:10.385Z,22.83
2018-07-28T06:48:39.699Z,22.89
2018-07-28T06:51:08.931Z,22.96
2018-07-28T06:53:38.103Z,23.01
2018-07-28T06:56:07.289Z,23.06
2018-07-28T06:58:36.489Z,23.12
2018-07-28T07:01:05.736Z,23.18
2018-07-28T07:03:34.940Z,23.22
2018-07-28T07:06:04.594Z,23.28
2018-07-28T07:08:33.760Z,23.36
2018-07-28T07:11:02.981Z,23.44
2018-07-28T07:13:32.195Z,23.52
2018-07-28T07:16:01.362Z,23.59
2018-07-28T07:18:30.696Z,23.67
2018-07-28T07:20:59.907Z,23.79
2018-07-28T07:23:29.032Z,23.88
2018-07-28T07:25:58.158Z,23.94
2018-07-28T07:28:27.351Z,24.02
2018-07-28T07:30:56.492Z,24.10
2018-07-28T07:33:25.687Z,24.16
2018-07-28T07:35:54.859Z,24.22
2018-07-28T07:38:24.065Z,24.30
2018-07-28T07:40:53.215Z,24.29
2018-07-28T07:43:22.687Z,24.34
2018-07-28T07:45:51.832Z,24.43
2018-07-28T07:48:21.028Z,24.52
2018-07-28T07:50:50.181Z,24.63
2018-07-28T07:53:19.400Z,24.73
2018-07-28T07:55:48.579Z,24.83
2018-07-28T07:58:17.758Z,24.94
2018-07-28T08:00:47.161Z,25.00
2018-07-28T08:03:16.712Z,25.07
2018-07-28T08:05:45.869Z,25.22
2018-07-28T08:08:15.025Z,25.31
2018-07-28T08:10:44.244Z,25.44
2018-07-28T08:13:13.397Z,25.54
2018-07-28T08:15:42.548Z,25.63
2018-07-28T08:18:11.747Z,25.68
2018-07-28T08:20:40.911Z,25.75
2018-07-28T08:23:10.318Z,25.77
2018-07-28T08:25:39.503Z,25.86
2018-07-28T08:28:08.649Z,25.86
2018-07-28T08:30:37.792Z,25.93
2018-07-28T08:33:07.261Z,25.89
2018-07-28T08:35:36.480Z,26.01
2018-07-28T08:38:05.628Z,26.08
2018-07-28T08:40:34.761Z,26.15
2018-07-28T08:43:03.904Z,26.22
2018-07-28T08:45:33.057Z,26.32
2018-07-28T08:48:02.184Z,26.42
2018-07-28T08:50:31.304Z,26.59
2018-07-28T08:53:00.457Z,26.65
2018-07-28T08:55:29.640Z,26.81
2018-07-28T08:57:58.737Z,26.97
2018-07-28T09:00:28.289Z,27.05
2018-07-28T09:02:57.421Z,27.05
2018-07-28T09:05:26.536Z,27.35
2018-07-28T09:07:55.675Z,27.33
2018-07-28T09:10:24.820Z,27.24
2018-07-28T09:12:53.938Z,27.24
2018-07-28T09:15:23.099Z,27.20
2018-07-28T09:17:52.497Z,27.13
2018-07-28T09:20:21.578Z,27.23
2018-07-28T09:22:50.709Z,27.36
2018-07-28T09:25:19.858Z,27.38
2018-07-28T09:27:49.027Z,27.45
2018-07-28T09:30:18.160Z,27.46
2018-07-28T09:32:47.308Z,27.54
2018-07-28T09:35:16.523Z,27.65
2018-07-28T09:37:45.509Z,27.84
2018-07-28T09:40:14.606Z,27.93
2018-07-28T09:42:43.764Z,28.07
2018-07-28T09:45:12.865Z,28.09
2018-07-28T09:47:42.013Z,28.24
2018-07-28T09:50:11.134Z,28.33
2018-07-28T09:52:40.311Z,28.42
2018-07-28T09:55:09.465Z,28.49
2018-07-28T09:57:38.586Z,28.53
2018-07-28T10:00:07.725Z,28.65
2018-07-28T10:02:36.920Z,28.76
2018-07-28T10:05:06.047Z,28.73
2018-07-28T10:07:35.189Z,28.72
2018-07-28T10:10:04.781Z,28.78
2018-07-28T10:12:33.900Z,28.86
2018-07-28T10:15:03.031Z,28.94
2018-07-28T10:17:32.214Z,29.03
2018-07-28T10:20:01.416Z,29.00
2018-07-28T10:22:30.545Z,28.86
2018-07-28T10:24:59.723Z,28.72
2018-07-28T10:27:28.845Z,28.59
2018-07-28T10:29:57.969Z,28.57
2018-07-28T10:32:27.111Z,28.61
2018-07-28T10:34:56.245Z,28.59
2018-07-28T10:37:25.389Z,28.49
2018-07-28T10:39:54.677Z,28.37
2018-07-28T10:42:23.805Z,28.25
2018-07-28T10:44:52.949Z,28.18
2018-07-28T10:47:23.158Z,28.04
2018-07-28T10:49:52.666Z,27.96
2018-07-28T10:52:21.854Z,27.85
2018-07-28T10:54:51.953Z,27.78
2018-07-28T10:57:24.461Z,27.69
2018-07-28T10:59:54.776Z,27.70
2018-07-28T11:02:23.912Z,27.65
2018-07-28T11:04:53.032Z,27.59
2018-07-28T11:07:22.213Z,27.58
2018-07-28T11:09:51.374Z,27.64
2018-07-28T11:12:20.523Z,27.72
2018-07-28T11:14:49.680Z,27.88
2018-07-28T11:17:18.810Z,27.87
2018-07-28T11:19:47.954Z,27.67
2018-07-28T11:22:17.144Z,27.76
2018-07-28T11:24:46.265Z,27.77
2018-07-28T11:27:15.392Z,27.81
2018-07-28T11:29:44.545Z,27.98
2018-07-28T11:32:30.812Z,28.05
2018-07-28T11:35:17.122Z,28.02
2018-07-28T11:38:08.262Z,28.04
2018-07-28T11:40:54.495Z,27.92
2018-07-28T11:44:42.715Z,28.06
2018-07-28T11:47:12.439Z,27.90
2018-07-28T11:49:41.938Z,27.96
2018-07-28T11:52:11.139Z,28.17
2018-07-28T11:54:40.330Z,28.15
2018-07-28T11:57:09.489Z,28.15
2018-07-28T11:59:38.700Z,28.20
2018-07-28T12:02:07.996Z,28.32
2018-07-28T12:04:37.158Z,28.25
2018-07-28T12:07:06.592Z,28.35
2018-07-28T12:09:36.030Z,28.43
2018-07-28T12:12:05.173Z,28.54
2018-07-28T12:14:34.319Z,28.61
2018-07-28T12:17:03.486Z,28.67
2018-07-28T12:19:32.679Z,28.74
2018-07-28T12:22:02.174Z,28.98
2018-07-28T12:24:31.317Z,28.97
2018-07-28T12:27:00.492Z,28.73
2018-07-28T12:29:29.657Z,28.69
2018-07-28T12:31:58.818Z,28.66
2018-07-28T12:34:28.038Z,28.69
2018-07-28T12:36:57.173Z,28.82
2018-07-28T12:39:26.367Z,28.98
2018-07-28T12:41:55.496Z,29.02
2018-07-28T12:44:24.620Z,28.88
2018-07-28T12:46:53.800Z,28.84
2018-07-28T12:49:23.007Z,28.94
2018-07-28T12:51:52.133Z,28.85
2018-07-28T12:54:21.261Z,28.68
2018-07-28T12:56:50.436Z,28.47
2018-07-28T12:59:19.560Z,28.36
2018-07-28T13:01:48.724Z,28.34
2018-07-28T13:04:17.853Z,28.34
2018-07-28T13:06:46.981Z,28.27
2018-07-28T13:09:16.267Z,28.19
2018-07-28T13:11:45.392Z,28.24
2018-07-28T13:14:14.559Z,28.36
2018-07-28T13:16:43.694Z,28.51
2018-07-28T13:19:12.859Z,28.72
2018-07-28T13:21:42.025Z,28.80
2018-07-28T13:24:10.952Z,29.03
2018-07-28T13:26:40.122Z,29.04
2018-07-28T13:29:09.289Z,29.22
2018-07-28T13:31:38.501Z,29.10
2018-07-28T13:34:07.689Z,29.16
2018-07-28T13:36:36.848Z,29.26
2018-07-28T13:39:08.148Z,29.14
2018-07-28T13:41:37.396Z,29.11
2018-07-28T13:44:06.781Z,29.05
2018-07-28T13:46:35.924Z,28.97
2018-07-28T13:49:05.093Z,28.81
2018-07-28T13:51:34.242Z,28.74
2018-07-28T13:54:03.419Z,28.54
2018-07-28T13:56:32.843Z,28.45
2018-07-28T13:59:02.007Z,28.26
2018-07-28T14:01:31.130Z,28.07
2018-07-28T14:04:00.258Z,28.01
2018-07-28T14:06:29.393Z,27.88
2018-07-28T14:08:58.590Z,27.80
2018-07-28T14:11:28.693Z,27.77
2018-07-28T14:13:58.169Z,27.94
2018-07-28T14:16:27.301Z,28.12
2018-07-28T14:18:56.580Z,28.22
2018-07-28T14:21:25.731Z,28.51
2018-07-28T14:23:54.853Z,28.61
2018-07-28T14:26:23.989Z,28.59
2018-07-28T14:28:53.136Z,28.59
2018-07-28T14:31:22.282Z,28.56
2018-07-28T14:33:52.036Z,28.56
2018-07-28T14:36:21.454Z,28.57
2018-07-28T14:38:50.576Z,28.83
2018-07-28T14:41:19.727Z,28.94
2018-07-28T14:43:48.874Z,28.91
2018-07-28T14:46:18.076Z,29.03
2018-07-28T14:48:47.189Z,29.00
2018-07-28T14:51:16.314Z,29.09
2018-07-28T14:53:45.465Z,28.94
2018-07-28T14:56:14.596Z,28.79
2018-07-28T14:58:43.721Z,28.96
2018-07-28T15:01:12.916Z,28.91
2018-07-28T15:03:41.988Z,28.73
2018-07-28T15:06:11.313Z,28.68
2018-07-28T15:08:40.488Z,28.65
2018-07-28T15:11:09.917Z,28.71
2018-07-28T15:13:39.064Z,28.52
2018-07-28T15:16:08.394Z,28.43
2018-07-28T15:18:37.536Z,28.35
2018-07-28T15:21:06.657Z,28.27
2018-07-28T15:23:35.797Z,28.27
2018-07-28T15:26:04.953Z,28.12
2018-07-28T15:28:34.409Z,28.04
2018-07-28T15:31:03.576Z,27.98
2018-07-28T15:33:32.734Z,27.93
2018-07-28T15:36:02.210Z,27.90
2018-07-28T15:38:31.330Z,27.81
2018-07-28T15:41:00.466Z,27.68
2018-07-28T15:43:29.609Z,27.69
2018-07-28T15:45:58.758Z,27.59
2018-07-28T15:48:27.944Z,27.54
2018-07-28T15:50:57.105Z,27.51
2018-07-28T15:53:26.816Z,27.53
2018-07-28T15:55:55.964Z,27.44
2018-07-28T15:58:25.156Z,27.40
2018-07-28T16:00:54.368Z,27.43
2018-07-28T16:03:23.522Z,27.39
2018-07-28T16:05:52.735Z,27.42
2018-07-28T16:08:21.841Z,27.33
2018-07-28T16:10:51.076Z,27.35
2018-07-28T16:13:20.016Z,27.26
2018-07-28T16:15:49.589Z,27.21
2018-07-28T16:18:18.752Z,27.16
2018-07-28T16:20:47.924Z,27.06
2018-07-28T16:23:17.116Z,27.10
2018-07-28T16:25:46.261Z,27.00
2018-07-28T16:28:15.453Z,27.04
2018-07-28T16:30:44.645Z,26.94
2018-07-28T16:33:13.564Z,26.95
2018-07-28T16:35:42.751Z,26.86
2018-07-28T16:38:12.256Z,26.81
2018-07-28T16:40:41.443Z,26.75
2018-07-28T16:43:10.631Z,26.71
2018-07-28T16:45:39.774Z,26.65
2018-07-28T16:48:08.924Z,26.63
2018-07-28T16:50:37.897Z,26.62
2018-07-28T16:53:07.014Z,26.57
2018-07-28T16:55:39.088Z,26.49
2018-07-28T16:58:08.512Z,26.41
2018-07-28T17:00:37.713Z,26.41
2018-07-28T17:03:06.903Z,26.38
2018-07-28T17:05:36.039Z,26.32
2018-07-28T17:08:05.196Z,26.18
2018-07-28T17:10:34.320Z,26.07
2018-07-28T17:13:03.476Z,26.07
2018-07-28T17:15:32.601Z,25.97
2018-07-28T17:18:01.787Z,25.84
2018-07-28T17:20:30.920Z,25.87
2018-07-28T17:23:00.079Z,25.96
2018-07-28T17:25:29.303Z,25.89
2018-07-28T17:27:58.771Z,25.86
2018-07-28T17:30:27.905Z,25.89
2018-07-28T17:32:57.046Z,25.74
2018-07-28T17:35:26.469Z,25.72
2018-07-28T17:37:55.385Z,25.71
2018-07-28T17:40:24.537Z,25.66
2018-07-28T17:42:53.705Z,25.64
2018-07-28T17:45:22.853Z,25.71
2018-07-28T17:47:52.007Z,25.59
2018-07-28T17:50:21.160Z,25.58
2018-07-28T17:52:50.315Z,25.68
2018-07-28T17:55:19.464Z,25.49
2018-07-28T17:57:48.630Z,25.42
2018-07-28T18:00:17.951Z,25.34
2018-07-28T18:02:47.118Z,25.32
2018-07-28T18:05:16.316Z,25.29
2018-07-28T18:07:45.244Z,25.24
2018-07-28T18:10:14.662Z,25.18
2018-07-28T18:12:43.849Z,25.16
2018-07-28T18:15:12.989Z,25.14
2018-07-28T18:17:42.203Z,25.13
2018-07-28T18:20:11.357Z,25.04
2018-07-28T18:22:40.560Z,25.03
2018-07-28T18:25:09.757Z,25.00
2018-07-28T18:27:38.895Z,24.97
2018-07-28T18:30:08.135Z,24.97
2018-07-28T18:32:37.295Z,24.89
2018-07-28T18:35:06.993Z,24.90
2018-07-28T18:37:35.939Z,24.84
2018-07-28T18:40:05.334Z,24.88
2018-07-28T18:42:34.489Z,24.77
2018-07-28T18:45:03.423Z,24.75
2018-07-28T18:47:32.545Z,24.78
2018-07-28T18:50:01.708Z,24.81
2018-07-28T18:52:30.809Z,24.76
2018-07-28T18:54:59.958Z,24.76
2018-07-28T18:57:29.167Z,24.74
2018-07-28T18:59:58.300Z,24.67
2018-07-28T19:02:27.436Z,24.66
2018-07-28T19:04:56.573Z,24.73
2018-07-28T19:07:25.759Z,24.69
2018-07-28T19:09:55.139Z,24.66
2018-07-28T19:12:29.559Z,24.58
2018-07-28T19:14:59.031Z,24.60
2018-07-28T19:18:31.508Z,24.64
2018-07-28T19:21:00.699Z,24.56
2018-07-28T19:23:35.225Z,24.57
2018-07-28T19:26:04.379Z,24.54
2018-07-28T19:28:38.887Z,24.48
2018-07-28T19:31:08.108Z,24.44
2018-07-28T19:33:37.282Z,24.45
2018-07-28T19:36:11.648Z,24.51
2018-07-28T19:38:41.167Z,24.40
2018-07-28T19:41:10.286Z,24.36
2018-07-28T19:43:39.404Z,24.31
2018-07-28T19:46:08.833Z,24.43
2018-07-28T19:48:37.988Z,24.32
2018-07-28T19:51:07.715Z,24.35
2018-07-28T19:53:37.064Z,24.30
2018-07-28T19:56:06.315Z,24.26
2018-07-28T19:58:35.440Z,24.35
2018-07-28T20:01:04.929Z,24.35
2018-07-28T20:03:34.079Z,24.36
2018-07-28T20:06:03.221Z,24.31
2018-07-28T20:08:32.421Z,24.30
2018-07-28T20:11:01.601Z,24.24
2018-07-28T20:13:30.520Z,24.22
2018-07-28T20:15:59.731Z,24.23
2018-07-28T20:18:28.889Z,24.20
2018-07-28T20:20:58.032Z,24.15
2018-07-28T20:23:27.553Z,24.16
2018-07-28T20:25:56.785Z,24.15
2018-07-28T20:28:25.963Z,24.12
2018-07-28T20:30:55.443Z,24.10
2018-07-28T20:33:24.574Z,24.05
2018-07-28T20:35:53.721Z,24.00
2018-07-28T20:38:23.651Z,23.96
2018-07-28T20:40:52.892Z,23.84
2018-07-28T20:43:22.053Z,23.84
2018-07-28T20:45:51.206Z,23.86
2018-07-28T20:48:20.461Z,23.81
2018-07-28T20:50:49.541Z,23.73
2018-07-28T20:53:18.669Z,23.75
2018-07-28T20:55:47.833Z,23.76
2018-07-28T20:58:16.984Z,23.71
2018-07-28T21:00:46.103Z,23.68
2018-07-28T21:03:15.239Z,23.67
2018-07-28T21:05:44.381Z,23.68
2018-07-28T21:08:13.528Z,23.71
2018-07-28T21:10:42.661Z,23.68
2018-07-28T21:13:11.863Z,23.62
2018-07-28T21:15:41.002Z,23.65
2018-07-28T21:18:10.138Z,23.65
2018-07-28T21:20:39.363Z,23.62
2018-07-28T21:23:08.433Z,23.59
2018-07-28T21:25:37.683Z,23.53
2018-07-28T21:28:07.087Z,23.53
2018-07-28T21:30:36.207Z,23.44
2018-07-28T21:33:05.537Z,23.42
2018-07-28T21:35:34.677Z,23.46
2018-07-28T21:38:03.801Z,23.42
2018-07-28T21:40:33.001Z,23.30
2018-07-28T21:43:02.175Z,23.29
2018-07-28T21:45:31.451Z,23.29
2018-07-28T21:48:00.353Z,23.26
2018-07-28T21:50:29.472Z,23.32
2018-07-28T21:52:58.612Z,23.35
2018-07-28T21:55:27.746Z,23.35
2018-07-28T21:57:56.889Z,23.34
2018-07-28T22:00:26.009Z,23.36
2018-07-28T22:02:55.518Z,23.27
2018-07-28T22:05:24.658Z,23.25
2018-07-28T22:07:53.789Z,23.22
2018-07-28T22:10:23.219Z,23.21
2018-07-28T22:12:52.396Z,23.28
2018-07-28T22:15:21.618Z,23.23
2018-07-28T22:17:50.777Z,23.11
2018-07-28T22:20:20.009Z,23.16
2018-07-28T22:22:49.548Z,23.15
2018-07-28T22:25:18.694Z,23.10
2018-07-28T22:27:47.812Z,23.09
2018-07-28T22:30:16.958Z,23.06
2018-07-28T22:32:46.082Z,23.07
2018-07-28T22:35:15.275Z,23.06
2018-07-28T22:37:44.466Z,23.14
2018-07-28T22:40:13.559Z,23.10
2018-07-28T22:42:51.006Z,23.10
2018-07-28T22:45:21.131Z,23.13
2018-07-28T22:47:50.252Z,23.06
2018-07-28T22:50:19.395Z,23.05
2018-07-28T22:52:48.619Z,23.00
2018-07-28T22:55:17.767Z,22.99
2018-07-28T22:57:46.897Z,22.99
2018-07-28T23:00:16.012Z,22.99
2018-07-28T23:02:45.192Z,23.01
2018-07-28T23:05:14.489Z,23.00
2018-07-28T23:07:43.691Z,23.04
2018-07-28T23:10:12.901Z,22.98
2018-07-28T23:12:42.046Z,22.97
2018-07-28T23:15:11.198Z,23.00
2018-07-28T23:17:40.380Z,22.97
2018-07-28T23:20:09.548Z,22.99
2018-07-28T23:22:38.698Z,22.94
2018-07-28T23:25:08.460Z,22.90
2018-07-28T23:27:37.767Z,22.93
2018-07-28T23:30:09.225Z,22.98
2018-07-28T23:32:38.829Z,22.94
2018-07-28T23:35:07.962Z,22.89
2018-07-28T23:37:37.093Z,22.90
2018-07-28T23:40:06.889Z,22.88
2018-07-28T23:42:36.037Z,22.83
2018-07-28T23:45:05.609Z,22.83
2018-07-28T23:47:34.869Z,22.82
2018-07-28T23:50:04.438Z,22.81
2018-07-28T23:52:33.647Z,22.83
2018-07-28T23:55:02.798Z,22.83
2018-07-28T23:57:31.965Z,22.79
